sensor_id;sensor_type;location;lat;lon;timestamp;pressure;altitude;pressure_sealevel;temperature;humidity
46955;BME280;32708;51.212;6.788;2023-04-10T00:00:52;101547.28;;;18.49;38.70
46955;BME280;32708;51.212;6.788;2023-04-10T00:03:37;101545.50;;;18.57;38.63
46955;BME280;32708;51.212;6.788;2023-04-10T00:06:30;101542.50;;;18.62;38.77
46955;BME280;32708;51.212;6.788;2023-04-10T00:09:02;101540.06;;;18.45;39.37
46955;BME280;32708;51.212;6.788;2023-04-10T00:11:29;101534.25;;;18.78;38.84
46955;BME280;32708;51.212;6.788;2023-04-10T00:14:01;101534.44;;;18.85;38.47
46955;BME280;32708;51.212;6.788;2023-04-10T00:16:38;101523.72;;;18.99;38.68
46955;BME280;32708;51.212;6.788;2023-04-10T00:19:13;101530.41;;;18.38;39.35
46955;BME280;32708;51.212;6.788;2023-04-10T00:21:42;101518.91;;;18.36;39.12
46955;BME280;32708;51.212;6.788;2023-04-10T00:24:08;101528.66;;;17.66;40.16
46955;BME280;32708;51.212;6.788;2023-04-10T00:26:45;101521.09;;;18.31;39.24
46955;BME280;32708;51.212;6.788;2023-04-10T00:29:23;101511.78;;;18.51;38.92
46955;BME280;32708;51.212;6.788;2023-04-10T00:32:02;101504.81;;;18.57;38.74
46955;BME280;32708;51.212;6.788;2023-04-10T00:34:35;101511.66;;;18.32;39.54
46955;BME280;32708;51.212;6.788;2023-04-10T00:37:04;101501.97;;;18.54;39.42
46955;BME280;32708;51.212;6.788;2023-04-10T00:39:37;101501.78;;;18.47;38.77
46955;BME280;32708;51.212;6.788;2023-04-10T00:42:09;101504.25;;;17.68;40.35
46955;BME280;32708;51.212;6.788;2023-04-10T00:44:49;101493.31;;;18.11;40.50
46955;BME280;32708;51.212;6.788;2023-04-10T00:47:43;101495.91;;;18.20;39.63
46955;BME280;32708;51.212;6.788;2023-04-10T00:50:25;101500.50;;;18.00;39.94
46955;BME280;32708;51.212;6.788;2023-04-10T00:53:10;101504.53;;;17.01;41.77
46955;BME280;32708;51.212;6.788;2023-04-10T00:55:48;101511.06;;;17.58;40.58
46955;BME280;32708;51.212;6.788;2023-04-10T00:58:18;101501.66;;;17.22;41.53
46955;BME280;32708;51.212;6.788;2023-04-10T01:00:47;101490.44;;;17.55;40.94
46955;BME280;32708;51.212;6.788;2023-04-10T01:03:26;101487.28;;;17.17;41.98
46955;BME280;32708;51.212;6.788;2023-04-10T01:06:23;101489.44;;;17.36;41.34
46955;BME280;32708;51.212;6.788;2023-04-10T01:09:58;101492.06;;;17.56;41.13
46955;BME280;32708;51.212;6.788;2023-04-10T01:15:09;101484.41;;;16.89;41.94
46955;BME280;32708;51.212;6.788;2023-04-10T01:20:25;101480.03;;;17.24;41.67
46955;BME280;32708;51.212;6.788;2023-04-10T01:26:08;101478.53;;;17.02;41.95
46955;BME280;32708;51.212;6.788;2023-04-10T01:29:00;101472.66;;;16.92;42.26
46955;BME280;32708;51.212;6.788;2023-04-10T01:31:52;101467.97;;;17.29;42.27
46955;BME280;32708;51.212;6.788;2023-04-10T01:34:26;101468.69;;;17.66;41.28
46955;BME280;32708;51.212;6.788;2023-04-10T01:37:02;101461.72;;;17.97;41.17
46955;BME280;32708;51.212;6.788;2023-04-10T01:39:35;101458.38;;;17.51;41.47
46955;BME280;32708;51.212;6.788;2023-04-10T01:42:08;101454.69;;;17.47;41.46
46955;BME280;32708;51.212;6.788;2023-04-10T01:44:41;101455.59;;;16.53;43.07
46955;BME280;32708;51.212;6.788;2023-04-10T01:47:09;101451.84;;;17.43;41.69
46955;BME280;32708;51.212;6.788;2023-04-10T01:49:40;101446.69;;;16.93;42.69
46955;BME280;32708;51.212;6.788;2023-04-10T01:52:11;101443.25;;;16.96;42.54
46955;BME280;32708;51.212;6.788;2023-04-10T01:54:38;101442.81;;;16.94;42.56
46955;BME280;32708;51.212;6.788;2023-04-10T01:57:05;101437.13;;;17.27;42.29
46955;BME280;32708;51.212;6.788;2023-04-10T01:59:40;101443.34;;;16.75;42.93
46955;BME280;32708;51.212;6.788;2023-04-10T02:02:07;101430.00;;;16.65;43.20
46955;BME280;32708;51.212;6.788;2023-04-10T02:04:36;101435.88;;;17.24;42.45
46955;BME280;32708;51.212;6.788;2023-04-10T02:07:30;101440.53;;;17.48;41.72
46955;BME280;32708;51.212;6.788;2023-04-10T02:12:50;101431.94;;;17.38;42.01
46955;BME280;32708;51.212;6.788;2023-04-10T02:15:25;101420.22;;;17.28;42.36
46955;BME280;32708;51.212;6.788;2023-04-10T02:17:55;101430.38;;;16.88;43.07
46955;BME280;32708;51.212;6.788;2023-04-10T02:20:24;101419.47;;;16.79;43.16
46955;BME280;32708;51.212;6.788;2023-04-10T02:22:51;101428.78;;;16.87;43.24
46955;BME280;32708;51.212;6.788;2023-04-10T02:25:18;101428.97;;;17.06;43.00
46955;BME280;32708;51.212;6.788;2023-04-10T02:27:44;101432.44;;;16.78;42.64
46955;BME280;32708;51.212;6.788;2023-04-10T02:30:11;101428.66;;;16.95;42.87
46955;BME280;32708;51.212;6.788;2023-04-10T02:32:37;101434.22;;;17.36;42.38
46955;BME280;32708;51.212;6.788;2023-04-10T02:35:07;101435.97;;;16.67;43.44
46955;BME280;32708;51.212;6.788;2023-04-10T02:37:36;101439.66;;;16.71;43.35
46955;BME280;32708;51.212;6.788;2023-04-10T02:40:03;101433.16;;;16.88;42.88
46955;BME280;32708;51.212;6.788;2023-04-10T02:42:38;101421.84;;;17.29;41.80
46955;BME280;32708;51.212;6.788;2023-04-10T02:45:04;101426.94;;;17.03;42.46
46955;BME280;32708;51.212;6.788;2023-04-10T02:47:36;101418.75;;;17.19;41.93
46955;BME280;32708;51.212;6.788;2023-04-10T02:50:02;101424.53;;;16.89;42.47
46955;BME280;32708;51.212;6.788;2023-04-10T02:52:33;101425.94;;;16.50;43.33
46955;BME280;32708;51.212;6.788;2023-04-10T02:55:00;101423.66;;;16.64;42.71
46955;BME280;32708;51.212;6.788;2023-04-10T02:57:31;101422.22;;;16.79;43.01
46955;BME280;32708;51.212;6.788;2023-04-10T02:59:57;101421.56;;;16.37;43.51
46955;BME280;32708;51.212;6.788;2023-04-10T03:02:26;101418.06;;;16.85;42.40
46955;BME280;32708;51.212;6.788;2023-04-10T03:04:53;101416.13;;;16.98;42.94
46955;BME280;32708;51.212;6.788;2023-04-10T03:07:19;101417.66;;;16.38;43.25
46955;BME280;32708;51.212;6.788;2023-04-10T03:09:45;101410.56;;;16.61;43.23
46955;BME280;32708;51.212;6.788;2023-04-10T03:12:11;101413.75;;;16.39;43.13
46955;BME280;32708;51.212;6.788;2023-04-10T03:14:38;101404.16;;;16.12;43.77
46955;BME280;32708;51.212;6.788;2023-04-10T03:17:05;101400.09;;;16.30;43.79
46955;BME280;32708;51.212;6.788;2023-04-10T03:19:33;101388.88;;;16.60;43.15
46955;BME280;32708;51.212;6.788;2023-04-10T03:21:59;101380.75;;;16.75;42.69
46955;BME280;32708;51.212;6.788;2023-04-10T03:24:25;101385.06;;;16.40;43.70
46955;BME280;32708;51.212;6.788;2023-04-10T03:26:51;101375.06;;;16.47;43.54
46955;BME280;32708;51.212;6.788;2023-04-10T03:29:18;101376.56;;;17.18;42.43
46955;BME280;32708;51.212;6.788;2023-04-10T03:31:44;101372.47;;;16.88;42.59
46955;BME280;32708;51.212;6.788;2023-04-10T03:34:11;101368.31;;;16.82;42.78
46955;BME280;32708;51.212;6.788;2023-04-10T03:36:37;101363.94;;;16.44;43.30
46955;BME280;32708;51.212;6.788;2023-04-10T03:39:03;101362.78;;;16.57;43.56
46955;BME280;32708;51.212;6.788;2023-04-10T03:41:29;101355.22;;;16.91;42.81
46955;BME280;32708;51.212;6.788;2023-04-10T03:43:56;101360.00;;;16.57;43.29
46955;BME280;32708;51.212;6.788;2023-04-10T03:46:22;101362.09;;;16.85;43.09
46955;BME280;32708;51.212;6.788;2023-04-10T03:48:49;101361.53;;;16.67;43.17
46955;BME280;32708;51.212;6.788;2023-04-10T03:51:19;101359.84;;;16.05;44.63
46955;BME280;32708;51.212;6.788;2023-04-10T03:53:45;101355.34;;;16.82;43.72
46955;BME280;32708;51.212;6.788;2023-04-10T03:56:15;101361.06;;;16.52;43.77
46955;BME280;32708;51.212;6.788;2023-04-10T03:58:41;101353.28;;;16.79;43.54
46955;BME280;32708;51.212;6.788;2023-04-10T04:01:08;101350.13;;;16.32;43.92
46955;BME280;32708;51.212;6.788;2023-04-10T04:03:50;101346.41;;;16.73;43.32
46955;BME280;32708;51.212;6.788;2023-04-10T04:06:46;101353.47;;;16.37;44.24
46955;BME280;32708;51.212;6.788;2023-04-10T04:09:19;101347.88;;;16.58;43.47
46955;BME280;32708;51.212;6.788;2023-04-10T04:12:14;101347.66;;;16.75;43.01
46955;BME280;32708;51.212;6.788;2023-04-10T04:15:07;101349.56;;;16.38;43.94
46955;BME280;32708;51.212;6.788;2023-04-10T04:18:09;101353.59;;;16.90;42.94
46955;BME280;32708;51.212;6.788;2023-04-10T04:20:39;101350.63;;;16.70;42.90
46955;BME280;32708;51.212;6.788;2023-04-10T04:23:16;101356.94;;;16.71;43.39
46955;BME280;32708;51.212;6.788;2023-04-10T04:25:56;101343.25;;;16.50;43.49
46955;BME280;32708;51.212;6.788;2023-04-10T04:28:48;101348.66;;;16.59;42.91
46955;BME280;32708;51.212;6.788;2023-04-10T04:31:36;101346.84;;;16.50;43.45
46955;BME280;32708;51.212;6.788;2023-04-10T04:34:35;101338.88;;;16.61;43.04
46955;BME280;32708;51.212;6.788;2023-04-10T04:37:24;101337.88;;;16.29;43.42
46955;BME280;32708;51.212;6.788;2023-04-10T04:40:10;101334.81;;;15.98;44.05
46955;BME280;32708;51.212;6.788;2023-04-10T04:42:55;101327.88;;;16.37;44.19
46955;BME280;32708;51.212;6.788;2023-04-10T04:45:27;101331.00;;;16.72;43.35
46955;BME280;32708;51.212;6.788;2023-04-10T04:48:17;101335.41;;;16.03;44.01
46955;BME280;32708;51.212;6.788;2023-04-10T04:51:00;101337.13;;;16.20;44.29
46955;BME280;32708;51.212;6.788;2023-04-10T04:53:40;101336.72;;;16.55;43.55
46955;BME280;32708;51.212;6.788;2023-04-10T04:56:14;101338.44;;;16.47;43.04
46955;BME280;32708;51.212;6.788;2023-04-10T04:59:07;101338.09;;;16.48;43.33
46955;BME280;32708;51.212;6.788;2023-04-10T05:01:54;101348.97;;;16.20;44.23
46955;BME280;32708;51.212;6.788;2023-04-10T05:04:44;101339.81;;;16.90;42.87
46955;BME280;32708;51.212;6.788;2023-04-10T05:07:29;101344.38;;;17.50;41.43
46955;BME280;32708;51.212;6.788;2023-04-10T05:09:56;101334.63;;;17.41;41.71
46955;BME280;32708;51.212;6.788;2023-04-10T05:12:40;101330.97;;;16.84;42.41
46955;BME280;32708;51.212;6.788;2023-04-10T05:15:31;101336.94;;;16.49;43.01
46955;BME280;32708;51.212;6.788;2023-04-10T05:18:07;101330.69;;;17.14;42.03
46955;BME280;32708;51.212;6.788;2023-04-10T05:20:53;101322.59;;;16.81;42.19
46955;BME280;32708;51.212;6.788;2023-04-10T05:23:39;101335.44;;;16.89;42.14
46955;BME280;32708;51.212;6.788;2023-04-10T05:26:24;101338.00;;;16.69;42.77
46955;BME280;32708;51.212;6.788;2023-04-10T05:29:11;101339.81;;;16.77;42.32
46955;BME280;32708;51.212;6.788;2023-04-10T05:32:13;101344.41;;;17.38;41.75
46955;BME280;32708;51.212;6.788;2023-04-10T05:34:56;101338.56;;;16.87;41.88
46955;BME280;32708;51.212;6.788;2023-04-10T05:37:43;101345.66;;;17.41;41.11
46955;BME280;32708;51.212;6.788;2023-04-10T05:40:32;101335.75;;;17.80;40.74
46955;BME280;32708;51.212;6.788;2023-04-10T05:43:21;101338.38;;;18.04;40.23
46955;BME280;32708;51.212;6.788;2023-04-10T05:46:14;101341.25;;;18.08;40.12
46955;BME280;32708;51.212;6.788;2023-04-10T05:48:48;101337.00;;;18.77;39.67
46955;BME280;32708;51.212;6.788;2023-04-10T05:51:25;101329.63;;;18.34;40.21
46955;BME280;32708;51.212;6.788;2023-04-10T05:54:13;101332.50;;;18.22;39.86
46955;BME280;32708;51.212;6.788;2023-04-10T05:57:00;101335.69;;;17.36;41.25
46955;BME280;32708;51.212;6.788;2023-04-10T05:59:43;101330.94;;;18.87;39.20
46955;BME280;32708;51.212;6.788;2023-04-10T06:02:28;101336.31;;;18.80;39.42
46955;BME280;32708;51.212;6.788;2023-04-10T06:04:54;101336.38;;;17.61;41.34
46955;BME280;32708;51.212;6.788;2023-04-10T06:07:21;101322.44;;;18.29;39.82
46955;BME280;32708;51.212;6.788;2023-04-10T06:09:47;101324.28;;;18.25;40.08
46955;BME280;32708;51.212;6.788;2023-04-10T06:12:13;101320.81;;;17.97;40.25
46955;BME280;32708;51.212;6.788;2023-04-10T06:14:41;101313.19;;;17.78;40.71
46955;BME280;32708;51.212;6.788;2023-04-10T06:17:07;101313.72;;;18.78;39.24
46955;BME280;32708;51.212;6.788;2023-04-10T06:19:34;101316.72;;;18.38;39.68
46955;BME280;32708;51.212;6.788;2023-04-10T06:22:03;101316.25;;;19.41;38.02
46955;BME280;32708;51.212;6.788;2023-04-10T06:24:29;101312.50;;;20.38;36.59
46955;BME280;32708;51.212;6.788;2023-04-10T06:26:56;101308.56;;;20.16;37.15
46955;BME280;32708;51.212;6.788;2023-04-10T06:29:23;101310.22;;;20.70;35.93
46955;BME280;32708;51.212;6.788;2023-04-10T06:31:50;101308.13;;;21.50;34.83
46955;BME280;32708;51.212;6.788;2023-04-10T06:34:16;101303.66;;;22.16;33.55
46955;BME280;32708;51.212;6.788;2023-04-10T06:36:51;101308.13;;;21.20;35.03
46955;BME280;32708;51.212;6.788;2023-04-10T06:39:21;101314.22;;;22.44;33.30
46955;BME280;32708;51.212;6.788;2023-04-10T06:41:47;101310.19;;;21.93;33.95
46955;BME280;32708;51.212;6.788;2023-04-10T06:44:32;101299.13;;;22.45;33.47
46955;BME280;32708;51.212;6.788;2023-04-10T06:46:58;101303.03;;;21.55;34.97
46955;BME280;32708;51.212;6.788;2023-04-10T06:49:24;101303.19;;;22.58;33.87
46955;BME280;32708;51.212;6.788;2023-04-10T06:51:50;101302.66;;;22.97;32.97
46955;BME280;32708;51.212;6.788;2023-04-10T06:54:16;101296.25;;;20.63;35.31
46955;BME280;32708;51.212;6.788;2023-04-10T06:56:43;101296.75;;;21.28;34.58
46955;BME280;32708;51.212;6.788;2023-04-10T06:59:09;101296.53;;;20.80;35.03
46955;BME280;32708;51.212;6.788;2023-04-10T07:01:35;101300.13;;;20.84;35.35
46955;BME280;32708;51.212;6.788;2023-04-10T07:04:01;101283.28;;;21.00;34.42
46955;BME280;32708;51.212;6.788;2023-04-10T07:06:27;101302.19;;;20.38;35.55
46955;BME280;32708;51.212;6.788;2023-04-10T07:08:54;101302.78;;;20.24;36.08
46955;BME280;32708;51.212;6.788;2023-04-10T07:11:20;101300.78;;;20.25;35.62
46955;BME280;32708;51.212;6.788;2023-04-10T07:13:47;101295.59;;;19.16;37.42
46955;BME280;32708;51.212;6.788;2023-04-10T07:16:13;101287.50;;;19.65;36.00
46955;BME280;32708;51.212;6.788;2023-04-10T07:18:39;101283.06;;;19.84;36.22
46955;BME280;32708;51.212;6.788;2023-04-10T07:21:10;101282.44;;;18.58;37.84
46955;BME280;32708;51.212;6.788;2023-04-10T07:23:39;101287.03;;;19.63;36.64
46955;BME280;32708;51.212;6.788;2023-04-10T07:26:05;101276.66;;;20.02;36.23
46955;BME280;32708;51.212;6.788;2023-04-10T07:28:32;101266.63;;;19.94;36.48
46955;BME280;32708;51.212;6.788;2023-04-10T07:30:58;101270.00;;;19.61;36.61
46955;BME280;32708;51.212;6.788;2023-04-10T07:33:24;101277.75;;;19.75;36.67
46955;BME280;32708;51.212;6.788;2023-04-10T07:35:50;101276.25;;;20.00;36.19
46955;BME280;32708;51.212;6.788;2023-04-10T07:38:17;101275.91;;;19.83;36.09
46955;BME280;32708;51.212;6.788;2023-04-10T07:40:43;101268.47;;;20.89;35.55
46955;BME280;32708;51.212;6.788;2023-04-10T07:43:10;101270.94;;;20.41;36.22
46955;BME280;32708;51.212;6.788;2023-04-10T07:45:36;101253.06;;;21.25;34.96
46955;BME280;32708;51.212;6.788;2023-04-10T07:48:02;101247.31;;;20.77;35.55
46955;BME280;32708;51.212;6.788;2023-04-10T07:50:31;101256.63;;;20.13;36.08
46955;BME280;32708;51.212;6.788;2023-04-10T07:52:57;101242.97;;;20.00;35.70
46955;BME280;32708;51.212;6.788;2023-04-10T07:55:28;101247.44;;;19.63;35.84
46955;BME280;32708;51.212;6.788;2023-04-10T07:57:54;101231.59;;;20.88;35.12
46955;BME280;32708;51.212;6.788;2023-04-10T08:00:21;101231.91;;;21.47;33.37
46955;BME280;32708;51.212;6.788;2023-04-10T08:02:47;101227.19;;;21.17;33.88
46955;BME280;32708;51.212;6.788;2023-04-10T08:05:13;101230.75;;;22.44;33.28
46955;BME280;32708;51.212;6.788;2023-04-10T08:07:39;101220.13;;;22.67;32.42
46955;BME280;32708;51.212;6.788;2023-04-10T08:10:06;101223.16;;;21.11;34.10
46955;BME280;32708;51.212;6.788;2023-04-10T08:12:33;101221.72;;;20.61;34.97
46955;BME280;32708;51.212;6.788;2023-04-10T08:15:03;101222.72;;;21.84;33.25
46955;BME280;32708;51.212;6.788;2023-04-10T08:17:29;101204.75;;;20.66;34.72
46955;BME280;32708;51.212;6.788;2023-04-10T08:19:55;101209.41;;;20.88;35.30
46955;BME280;32708;51.212;6.788;2023-04-10T08:22:22;101204.88;;;20.77;35.31
46955;BME280;32708;51.212;6.788;2023-04-10T08:24:48;101212.31;;;19.05;37.03
46955;BME280;32708;51.212;6.788;2023-04-10T08:27:14;101213.75;;;19.18;37.50
46955;BME280;32708;51.212;6.788;2023-04-10T08:29:42;101207.84;;;19.20;37.42
46955;BME280;32708;51.212;6.788;2023-04-10T08:32:08;101206.88;;;19.09;37.92
46955;BME280;32708;51.212;6.788;2023-04-10T08:34:34;101203.44;;;19.15;38.05
46955;BME280;32708;51.212;6.788;2023-04-10T08:37:05;101208.47;;;19.98;36.92
46955;BME280;32708;51.212;6.788;2023-04-10T08:39:34;101186.75;;;19.77;37.15
46955;BME280;32708;51.212;6.788;2023-04-10T08:42:02;101189.50;;;19.31;37.61
46955;BME280;32708;51.212;6.788;2023-04-10T08:44:29;101176.56;;;18.96;37.60
46955;BME280;32708;51.212;6.788;2023-04-10T08:46:59;101181.72;;;18.79;38.14
46955;BME280;32708;51.212;6.788;2023-04-10T08:49:52;101166.34;;;19.20;37.48
46955;BME280;32708;51.212;6.788;2023-04-10T08:52:25;101179.94;;;18.67;38.19
46955;BME280;32708;51.212;6.788;2023-04-10T08:54:58;101151.16;;;20.05;36.68
46955;BME280;32708;51.212;6.788;2023-04-10T08:57:25;101154.81;;;20.10;36.75
46955;BME280;32708;51.212;6.788;2023-04-10T08:59:52;101156.69;;;20.58;36.47
46955;BME280;32708;51.212;6.788;2023-04-10T09:02:20;101156.06;;;19.89;36.77
46955;BME280;32708;51.212;6.788;2023-04-10T09:04:52;101156.66;;;20.88;34.96
46955;BME280;32708;51.212;6.788;2023-04-10T09:07:20;101137.72;;;20.34;35.82
46955;BME280;32708;51.212;6.788;2023-04-10T09:09:48;101145.22;;;20.60;35.68
46955;BME280;32708;51.212;6.788;2023-04-10T09:12:15;101144.59;;;21.48;34.28
46955;BME280;32708;51.212;6.788;2023-04-10T09:14:42;101133.22;;;22.15;33.18
46955;BME280;32708;51.212;6.788;2023-04-10T09:17:23;101143.28;;;21.83;34.13
46955;BME280;32708;51.212;6.788;2023-04-10T09:19:54;101149.63;;;21.83;33.43
46955;BME280;32708;51.212;6.788;2023-04-10T09:22:31;101142.38;;;21.27;33.78
46955;BME280;32708;51.212;6.788;2023-04-10T09:25:02;101151.59;;;20.98;34.21
46955;BME280;32708;51.212;6.788;2023-04-10T09:27:34;101155.91;;;20.05;36.15
46955;BME280;32708;51.212;6.788;2023-04-10T09:30:02;101159.84;;;20.91;34.76
46955;BME280;32708;51.212;6.788;2023-04-10T09:32:44;101154.50;;;21.49;33.77
46955;BME280;32708;51.212;6.788;2023-04-10T09:35:14;101153.53;;;20.30;34.51
46955;BME280;32708;51.212;6.788;2023-04-10T09:37:43;101156.63;;;20.28;34.77
46955;BME280;32708;51.212;6.788;2023-04-10T09:40:22;101143.75;;;20.70;33.92
46955;BME280;32708;51.212;6.788;2023-04-10T09:42:55;101138.19;;;20.70;34.00
46955;BME280;32708;51.212;6.788;2023-04-10T09:45:22;101118.00;;;22.02;33.04
46955;BME280;32708;51.212;6.788;2023-04-10T09:48:14;101122.53;;;22.28;32.41
46955;BME280;32708;51.212;6.788;2023-04-10T09:50:41;101124.44;;;23.11;31.34
46955;BME280;32708;51.212;6.788;2023-04-10T09:53:17;101119.56;;;22.76;31.32
46955;BME280;32708;51.212;6.788;2023-04-10T09:55:47;101114.41;;;22.85;31.50
46955;BME280;32708;51.212;6.788;2023-04-10T09:58:15;101106.06;;;21.98;32.22
46955;BME280;32708;51.212;6.788;2023-04-10T10:00:47;101117.75;;;20.85;32.68
46955;BME280;32708;51.212;6.788;2023-04-10T10:03:18;101097.25;;;21.89;32.01
46955;BME280;32708;51.212;6.788;2023-04-10T10:05:50;101104.69;;;22.29;31.82
46955;BME280;32708;51.212;6.788;2023-04-10T10:08:17;101103.06;;;22.24;31.41
46955;BME280;32708;51.212;6.788;2023-04-10T10:10:59;101092.47;;;22.59;30.79
46955;BME280;32708;51.212;6.788;2023-04-10T10:13:40;101080.47;;;22.37;30.88
46955;BME280;32708;51.212;6.788;2023-04-10T10:19:32;101069.91;;;23.06;30.61
46955;BME280;32708;51.212;6.788;2023-04-10T10:22:03;101057.91;;;22.77;30.14
46955;BME280;32708;51.212;6.788;2023-04-10T10:24:32;101071.53;;;23.08;30.06
46955;BME280;32708;51.212;6.788;2023-04-10T10:27:08;101051.63;;;22.95;30.14
46955;BME280;32708;51.212;6.788;2023-04-10T10:29:39;101048.78;;;22.73;30.42
46955;BME280;32708;51.212;6.788;2023-04-10T10:32:07;101054.59;;;22.25;30.57
46955;BME280;32708;51.212;6.788;2023-04-10T10:34:34;101048.25;;;22.36;30.76
46955;BME280;32708;51.212;6.788;2023-04-10T10:37:03;101038.31;;;22.35;30.30
46955;BME280;32708;51.212;6.788;2023-04-10T10:40:23;101029.03;;;22.02;31.64
46955;BME280;32708;51.212;6.788;2023-04-10T10:43:24;101003.34;;;21.57;31.59
46955;BME280;32708;51.212;6.788;2023-04-10T10:46:06;101006.22;;;22.84;30.97
46955;BME280;32708;51.212;6.788;2023-04-10T10:48:34;100995.78;;;22.31;30.59
46955;BME280;32708;51.212;6.788;2023-04-10T10:51:01;100987.88;;;21.05;32.34
46955;BME280;32708;51.212;6.788;2023-04-10T10:53:43;100994.94;;;22.19;31.30
46955;BME280;32708;51.212;6.788;2023-04-10T10:58:51;100964.91;;;21.66;31.86
46955;BME280;32708;51.212;6.788;2023-04-10T11:01:18;100966.59;;;21.23;31.76
46955;BME280;32708;51.212;6.788;2023-04-10T11:03:46;100960.81;;;22.30;31.29
46955;BME280;32708;51.212;6.788;2023-04-10T11:06:19;100961.69;;;22.59;30.53
46955;BME280;32708;51.212;6.788;2023-04-10T11:08:48;100950.06;;;23.74;29.63
46955;BME280;32708;51.212;6.788;2023-04-10T11:11:25;100945.00;;;23.05;30.58
46955;BME280;32708;51.212;6.788;2023-04-10T11:16:44;100932.22;;;22.33;30.83
46955;BME280;32708;51.212;6.788;2023-04-10T11:19:28;100952.06;;;22.35;30.98
46955;BME280;32708;51.212;6.788;2023-04-10T11:22:07;100946.34;;;21.92;31.68
46955;BME280;32708;51.212;6.788;2023-04-10T11:24:59;100930.25;;;22.51;30.73
46955;BME280;32708;51.212;6.788;2023-04-10T11:30:40;100935.75;;;22.08;31.10
46955;BME280;32708;51.212;6.788;2023-04-10T11:33:23;100918.13;;;21.83;31.59
46955;BME280;32708;51.212;6.788;2023-04-10T11:35:54;100909.00;;;21.86;31.43
46955;BME280;32708;51.212;6.788;2023-04-10T11:38:36;100908.75;;;22.34;31.35
46955;BME280;32708;51.212;6.788;2023-04-10T11:41:08;100898.97;;;21.53;31.81
46955;BME280;32708;51.212;6.788;2023-04-10T11:43:44;100889.47;;;21.64;31.94
46955;BME280;32708;51.212;6.788;2023-04-10T11:46:23;100889.19;;;21.98;30.85
46955;BME280;32708;51.212;6.788;2023-04-10T11:49:09;100905.22;;;22.58;30.90
46955;BME280;32708;51.212;6.788;2023-04-10T11:51:39;100904.78;;;22.31;31.00
46955;BME280;32708;51.212;6.788;2023-04-10T11:54:11;100886.00;;;21.92;31.55
46955;BME280;32708;51.212;6.788;2023-04-10T11:57:06;100894.88;;;21.32;32.17
46955;BME280;32708;51.212;6.788;2023-04-10T11:59:53;100878.13;;;22.12;31.45
46955;BME280;32708;51.212;6.788;2023-04-10T12:02:35;100881.34;;;22.32;31.42
46955;BME280;32708;51.212;6.788;2023-04-10T12:05:23;100868.47;;;21.78;31.86
46955;BME280;32708;51.212;6.788;2023-04-10T12:07:57;100858.88;;;21.54;31.79
46955;BME280;32708;51.212;6.788;2023-04-10T12:10:47;100867.34;;;21.96;31.60
46955;BME280;32708;51.212;6.788;2023-04-10T12:13:33;100865.31;;;21.83;31.95
46955;BME280;32708;51.212;6.788;2023-04-10T12:16:10;100852.34;;;22.55;31.49
46955;BME280;32708;51.212;6.788;2023-04-10T12:18:41;100840.41;;;22.75;30.56
46955;BME280;32708;51.212;6.788;2023-04-10T12:21:11;100851.13;;;22.16;31.22
46955;BME280;32708;51.212;6.788;2023-04-10T12:23:41;100849.94;;;22.64;31.42
46955;BME280;32708;51.212;6.788;2023-04-10T12:26:21;100847.16;;;22.35;31.16
46955;BME280;32708;51.212;6.788;2023-04-10T12:29:06;100854.25;;;21.93;31.78
46955;BME280;32708;51.212;6.788;2023-04-10T12:31:44;100835.97;;;22.07;31.79
46955;BME280;32708;51.212;6.788;2023-04-10T12:34:22;100833.59;;;21.94;31.61
46955;BME280;32708;51.212;6.788;2023-04-10T12:36:52;100821.34;;;22.60;31.25
46955;BME280;32708;51.212;6.788;2023-04-10T12:39:24;100823.91;;;23.45;30.69
46955;BME280;32708;51.212;6.788;2023-04-10T12:44:56;100800.53;;;23.25;29.89
46955;BME280;32708;51.212;6.788;2023-04-10T12:47:28;100809.53;;;23.50;29.79
46955;BME280;32708;51.212;6.788;2023-04-10T12:50:18;100805.34;;;23.10;30.46
46955;BME280;32708;51.212;6.788;2023-04-10T12:53:08;100794.53;;;23.26;30.58
46955;BME280;32708;51.212;6.788;2023-04-10T12:55:43;100793.50;;;24.31;29.54
46955;BME280;32708;51.212;6.788;2023-04-10T12:58:27;100791.38;;;23.21;29.72
46955;BME280;32708;51.212;6.788;2023-04-10T13:01:15;100792.25;;;22.78;30.76
46955;BME280;32708;51.212;6.788;2023-04-10T13:03:42;100779.19;;;22.68;31.07
46955;BME280;32708;51.212;6.788;2023-04-10T13:06:09;100777.16;;;22.94;30.30
46955;BME280;32708;51.212;6.788;2023-04-10T13:08:37;100774.47;;;23.67;29.93
46955;BME280;32708;51.212;6.788;2023-04-10T13:11:06;100766.22;;;23.35;30.29
46955;BME280;32708;51.212;6.788;2023-04-10T13:13:38;100760.75;;;23.17;30.51
46955;BME280;32708;51.212;6.788;2023-04-10T13:16:13;100768.69;;;23.96;29.73
46955;BME280;32708;51.212;6.788;2023-04-10T13:18:40;100761.31;;;23.68;29.45
46955;BME280;32708;51.212;6.788;2023-04-10T13:21:18;100755.78;;;24.16;29.36
46955;BME280;32708;51.212;6.788;2023-04-10T13:23:51;100747.72;;;24.25;28.84
46955;BME280;32708;51.212;6.788;2023-04-10T13:26:28;100757.13;;;23.27;30.13
46955;BME280;32708;51.212;6.788;2023-04-10T13:29:00;100737.47;;;24.15;29.34
46955;BME280;32708;51.212;6.788;2023-04-10T13:31:35;100736.84;;;24.41;28.87
46955;BME280;32708;51.212;6.788;2023-04-10T13:34:05;100729.00;;;24.67;28.81
46955;BME280;32708;51.212;6.788;2023-04-10T13:36:39;100717.38;;;24.72;28.36
46955;BME280;32708;51.212;6.788;2023-04-10T13:39:09;100704.59;;;24.37;27.96
46955;BME280;32708;51.212;6.788;2023-04-10T13:41:35;100688.41;;;23.73;28.28
46955;BME280;32708;51.212;6.788;2023-04-10T13:44:08;100688.19;;;24.42;28.05
46955;BME280;32708;51.212;6.788;2023-04-10T13:46:41;100676.94;;;23.56;27.80
46955;BME280;32708;51.212;6.788;2023-04-10T13:49:07;100680.47;;;23.68;27.98
46955;BME280;32708;51.212;6.788;2023-04-10T13:51:33;100675.47;;;23.93;27.47